首页
METAR-TAF:

METAR-TAF

机场 :

Chetwynd, 不列颠哥伦比亚, 加拿大

纬度: 55-42N, 经度: 121-38W, 海拔: 609米

当前天气观测

该预报发布于10小时和52分钟前的00:00 UTC
风速3节,风向南转西南
温度 -1°C
湿度 74%
气压 1007 hPa
能見度: 24.1公里
少量云层高于3500英尺
少量云层高于4500英尺
多云层高于10000英尺
阴天层高于21000英尺

METAR: CYCQ 150000Z 20003KT 15SM FEW035 FEW045 BKN100 OVC210 M01/M05 A2975 RMK SC1SC1AC4CI2 FU VLY W VIS DUE LO CLD W LAST STFD OBS/NEXT 151400Z SLP109

时间: 03:52 (10:52 UTC)


TAF: 丢失

超过4000个机场的气象观测和天气预报(METAR&TAF报告)。

可查询的气象台以黄色和红色小点在地图上表示。

将鼠标移到小点上方,可查看气象台名称。

然后点击查看天气观测和预报。

如需切换地图:点击带黑十字的绿色按钮放大地图;点击带横线的绿色按钮缩小地图;或者点击绿色箭头查看邻近地区的地图。


METAR-TAF: